Time;durP1;ratioP1;P1;durP2;ratioP2;P2;SDS_P1;SDS_P2;PMS_P1;PMS_P2;Temp;Humidity;BMP_temperature;BMP_pressure;BME280_temperature;BME280_humidity;BME280_pressure;Samples;Min_cycle;Max_cycle;Signal;HPM_P1;HPM_P2
2023/12/21 00:00:49;;;;;;;19.80;2.33;;;;;;;10.06;100.00;100290.53;7393755;19;19931;-78
2023/12/21 00:03:20;;;;;;;8.90;1.73;;;;;;;10.10;100.00;100291.81;7390887;19;20243;-78
2023/12/21 00:05:49;;;;;;;13.70;1.90;;;;;;;10.14;100.00;100300.38;7391368;19;20365;-78
2023/12/21 00:08:17;;;;;;;12.75;2.08;;;;;;;10.13;100.00;100285.25;7392513;19;19933;-80
2023/12/21 00:10:47;;;;;;;9.77;1.60;;;;;;;10.08;100.00;100283.13;7395618;19;20316;-80
2023/12/21 00:13:15;;;;;;;13.10;1.95;;;;;;;10.12;100.00;100272.81;7398176;19;19922;-80
2023/12/21 00:15:44;;;;;;;11.65;1.60;;;;;;;10.16;100.00;100256.13;7392839;19;20253;-80
2023/12/21 00:18:12;;;;;;;13.65;1.90;;;;;;;10.21;100.00;100255.56;7390521;19;20362;-81
2023/12/21 00:20:44;;;;;;;10.00;1.73;;;;;;;10.19;100.00;100258.44;7387033;19;20403;-81
2023/12/21 00:23:13;;;;;;;9.23;2.35;;;;;;;10.17;100.00;100251.59;7391132;19;19922;-80
2023/12/21 00:25:41;;;;;;;9.30;1.35;;;;;;;10.13;100.00;100252.94;7389484;19;19986;-81
2023/12/21 00:28:10;;;;;;;11.68;1.55;;;;;;;10.21;100.00;100256.41;7382437;19;19934;-81
2023/12/21 00:30:39;;;;;;;9.13;1.98;;;;;;;10.20;100.00;100243.13;7388729;19;19926;-81
2023/12/21 00:33:07;;;;;;;9.63;1.40;;;;;;;10.20;100.00;100235.03;7390431;19;20418;-81
2023/12/21 00:35:36;;;;;;;8.63;1.50;;;;;;;10.21;100.00;100223.25;7390467;19;19943;-81
2023/12/21 00:38:08;;;;;;;6.85;1.60;;;;;;;10.21;100.00;100231.34;7389319;19;19933;-81
2023/12/21 00:40:36;;;;;;;9.10;1.42;;;;;;;10.20;100.00;100221.59;7389376;19;20019;-82
2023/12/21 00:43:05;;;;;;;9.88;1.67;;;;;;;10.18;100.00;100231.72;7388581;19;20349;-81
2023/12/21 00:45:34;;;;;;;14.60;1.70;;;;;;;10.19;100.00;100225.28;7386830;19;19927;-81
2023/12/21 00:48:03;;;;;;;12.48;1.80;;;;;;;10.17;100.00;100217.44;7390056;19;20319;-81
2023/12/21 00:50:34;;;;;;;9.23;1.63;;;;;;;10.13;100.00;100226.03;7389810;19;19926;-81
2023/12/21 00:53:03;;;;;;;17.83;2.67;;;;;;;10.15;100.00;100229.34;7389710;19;19931;-81
2023/12/21 00:55:34;;;;;;;9.02;1.73;;;;;;;10.20;100.00;100208.13;7389501;19;20344;-81
2023/12/21 00:58:03;;;;;;;13.80;1.88;;;;;;;10.16;100.00;100220.31;7389092;19;19922;-81
2023/12/21 01:00:31;;;;;;;12.23;1.67;;;;;;;10.14;100.00;100214.25;7387815;19;19919;-81
2023/12/21 01:03:00;;;;;;;7.15;1.70;;;;;;;10.14;100.00;100203.50;7389305;19;19919;-81
2023/12/21 01:05:29;;;;;;;9.48;1.75;;;;;;;10.07;100.00;100197.19;7388092;19;20485;-80
2023/12/21 01:07:58;;;;;;;10.52;2.20;;;;;;;10.08;100.00;100188.09;7388688;19;19915;-81
2023/12/21 01:10:26;;;;;;;11.43;2.10;;;;;;;10.12;100.00;100175.91;7394386;19;19937;-81
2023/12/21 01:12:58;;;;;;;9.98;1.85;;;;;;;10.12;100.00;100159.78;7386602;19;20272;-81
2023/12/21 01:15:27;;;;;;;10.13;1.55;;;;;;;10.13;100.00;100159.59;7390458;19;20393;-81
2023/12/21 01:17:56;;;;;;;5.70;1.40;;;;;;;10.12;100.00;100159.78;7388761;19;19922;-80
2023/12/21 01:20:25;;;;;;;8.35;1.92;;;;;;;10.11;100.00;100144.66;7389734;19;19922;-81
2023/12/21 01:22:53;;;;;;;12.52;1.98;;;;;;;10.01;100.00;100148.47;7385941;19;19922;-80
2023/12/21 01:25:22;;;;;;;11.93;1.75;;;;;;;9.99;100.00;100158.63;7388590;19;19933;-81
2023/12/21 01:27:50;;;;;;;13.52;2.17;;;;;;;9.99;100.00;100155.09;7388617;19;19947;-80
2023/12/21 01:30:23;;;;;;;11.18;1.92;;;;;;;9.86;100.00;100161.16;7385117;19;19926;-81
2023/12/21 01:32:53;;;;;;;13.48;2.22;;;;;;;9.87;100.00;100162.00;7388213;19;19934;-80
2023/12/21 01:35:21;;;;;;;12.60;2.10;;;;;;;9.80;100.00;100167.28;7388507;19;19947;-81
2023/12/21 01:37:50;;;;;;;12.00;2.05;;;;;;;9.79;100.00;100160.25;7390617;19;19918;-81
2023/12/21 01:40:19;;;;;;;8.38;2.08;;;;;;;9.73;100.00;100135.97;7392040;19;19926;-81
2023/12/21 01:42:47;;;;;;;10.95;2.10;;;;;;;9.70;100.00;100137.19;7394530;19;19986;-81
2023/12/21 01:45:16;;;;;;;11.80;2.35;;;;;;;9.63;100.00;100138.09;7389700;19;20754;-81
2023/12/21 01:47:49;;;;;;;9.73;2.45;;;;;;;9.62;100.00;100136.47;7394460;19;19919;-81
2023/12/21 01:50:18;;;;;;;11.18;1.80;;;;;;;9.61;100.00;100126.72;7395261;19;19926;-81
2023/12/21 01:52:47;;;;;;;9.90;2.53;;;;;;;9.57;100.00;100112.81;7394434;19;19930;-81
2023/12/21 01:55:18;;;;;;;7.30;1.58;;;;;;;9.58;100.00;100111.78;7392840;19;20419;-81
2023/12/21 01:57:47;;;;;;;11.27;2.28;;;;;;;9.55;100.00;100098.72;7392542;19;19925;-81
2023/12/21 02:00:18;;;;;;;9.57;1.55;;;;;;;9.56;100.00;100079.72;7393201;19;19987;-81
2023/12/21 02:02:49;;;;;;;7.40;1.55;;;;;;;9.62;100.00;100078.09;7391799;19;19965;-81
2023/12/21 02:05:18;;;;;;;6.13;1.92;;;;;;;9.61;100.00;100079.16;7393098;19;20301;-81
2023/12/21 02:07:47;;;;;;;10.88;2.05;;;;;;;9.55;100.00;100072.66;7393488;19;19943;-81
2023/12/21 02:10:39;;;;;;;12.10;2.20;;;;;;;9.53;100.00;100063.13;7389548;19;19940;-81
2023/12/21 02:13:08;;;;;;;10.50;2.00;;;;;;;9.50;100.00;100050.06;7392870;19;19918;-81
2023/12/21 02:15:37;;;;;;;14.80;2.08;;;;;;;9.44;100.00;100062.44;7394525;19;20005;-81
2023/12/21 02:18:11;;;;;;;7.20;2.03;;;;;;;9.47;100.00;100043.22;7393148;19;19927;-81
2023/12/21 02:20:41;;;;;;;8.02;1.73;;;;;;;9.48;100.00;100050.25;7397215;19;20425;-80
2023/12/21 02:23:12;;;;;;;11.18;1.60;;;;;;;9.50;100.00;100042.81;7391260;19;20407;-81
2023/12/21 02:25:44;;;;;;;;;;;;;;;9.47;100.00;100037.84;7395622;19;19969;-81
2023/12/21 02:28:13;;;;;;;6.57;1.67;;;;;;;9.49;100.00;100010.78;7395165;19;19923;-81
2023/12/21 02:30:41;;;;;;;5.63;1.60;;;;;;;9.46;100.00;100021.88;7403927;19;19923;-81
2023/12/21 02:33:10;;;;;;;7.30;1.45;;;;;;;9.57;100.00;100013.34;7399113;19;20356;-81
2023/12/21 02:35:39;;;;;;;7.45;1.73;;;;;;;9.52;100.00;100021.13;7393770;19;19951;-81
2023/12/21 02:38:08;;;;;;;5.15;1.65;;;;;;;9.49;100.00;100016.97;7391663;19;19914;-81
2023/12/21 02:40:37;;;;;;;8.18;1.92;;;;;;;9.46;100.00;100016.50;7389871;19;19930;-80
2023/12/21 02:43:08;;;;;;;13.57;1.85;;;;;;;9.47;100.00;100000.19;7392029;19;19923;-81
2023/12/21 02:45:42;;;;;;;12.90;1.70;;;;;;;9.50;100.00;100007.03;7392268;19;19929;-81
2023/12/21 02:48:12;;;;;;;8.85;2.00;;;;;;;9.50;100.00;100005.19;7392412;19;20252;-81
2023/12/21 02:51:02;;;;;;;9.68;2.42;;;;;;;9.52;100.00;99991.56;7388220;19;19926;-81
2023/12/21 02:53:31;;;;;;;7.68;1.77;;;;;;;9.52;100.00;100007.69;7391933;19;19926;-81
2023/12/21 02:56:00;;;;;;;8.95;1.98;;;;;;;9.54;100.00;99998.41;7391891;19;19927;-81
2023/12/21 02:58:32;;;;;;;5.95;1.38;;;;;;;9.52;100.00;99991.56;7392326;19;19922;-81
2023/12/21 03:01:00;;;;;;;8.77;1.65;;;;;;;9.51;100.00;99953.09;7390881;19;19929;-81
2023/12/21 03:03:29;;;;;;;6.65;1.63;;;;;;;9.53;100.00;99940.25;7392882;19;20352;-81
2023/12/21 03:05:58;;;;;;;9.95;1.92;;;;;;;9.51;100.00;99944.19;7392610;19;20348;-81
2023/12/21 03:08:27;;;;;;;7.20;2.17;;;;;;;9.52;100.00;99929.72;7391236;19;19922;-81
2023/12/21 03:10:55;;;;;;;7.90;1.73;;;;;;;9.54;100.00;99908.84;7391368;19;20360;-81
2023/12/21 03:13:24;;;;;;;6.55;1.40;;;;;;;9.57;100.00;99897.72;7391938;19;19929;-81
2023/12/21 03:15:55;;;;;;;5.45;1.52;;;;;;;9.60;100.00;99907.25;7393555;19;20353;-81
2023/12/21 03:18:24;;;;;;;6.18;1.63;;;;;;;9.52;100.00;99906.38;7392258;19;20329;-81
2023/12/21 03:20:53;;;;;;;10.52;2.28;;;;;;;9.55;100.00;99899.75;7392607;19;19946;-81
2023/12/21 03:23:21;;;;;;;10.35;1.98;;;;;;;9.57;100.00;99892.34;7392561;19;19947;-81
2023/12/21 03:26:11;;;;;;;10.50;2.10;;;;;;;9.59;100.00;99895.66;7391102;19;20368;-81
2023/12/21 03:28:44;;;;;;;6.43;1.55;;;;;;;9.56;100.00;99890.66;7393774;19;20273;-81
2023/12/21 03:31:18;;;;;;;10.00;1.88;;;;;;;9.55;100.00;99870.19;7398284;19;20353;-81
2023/12/21 03:33:47;;;;;;;11.02;2.10;;;;;;;9.55;100.00;99880.94;7392133;19;20240;-81
2023/12/21 03:36:17;;;;;;;6.38;1.77;;;;;;;9.55;100.00;99878.25;7391531;19;19931;-81
2023/12/21 03:38:45;;;;;;;7.75;2.22;;;;;;;9.59;100.00;99852.63;7392144;19;19947;-81
2023/12/21 03:41:14;;;;;;;6.75;1.83;;;;;;;9.62;100.00;99852.22;7388691;19;19929;-81
2023/12/21 03:43:42;;;;;;;5.03;1.55;;;;;;;9.64;100.00;99838.59;7393216;19;19956;-81
2023/12/21 03:46:11;;;;;;;9.55;1.48;;;;;;;9.65;100.00;99833.03;7391209;19;19923;-81
2023/12/21 03:48:43;;;;;;;6.10;1.40;;;;;;;9.68;100.00;99831.81;7392037;19;19947;-81
2023/12/21 03:51:11;;;;;;;5.97;1.58;;;;;;;9.64;100.00;99820.59;7390364;19;19922;-81
2023/12/21 03:53:40;;;;;;;8.25;1.55;;;;;;;9.58;100.00;99829.44;7393282;19;19946;-81
2023/12/21 03:56:10;;;;;;;9.20;2.20;;;;;;;9.55;100.00;99835.22;7392481;19;19922;-81
2023/12/21 03:58:39;;;;;;;8.63;2.03;;;;;;;9.63;100.00;99807.34;7393275;19;20006;-81
2023/12/21 04:01:07;;;;;;;3.40;1.42;;;;;;;9.55;100.00;99802.97;7391406;19;20002;-82
2023/12/21 04:03:36;;;;;;;5.28;1.98;;;;;;;9.55;100.00;99798.41;7392506;19;20281;-81
2023/12/21 04:06:07;;;;;;;5.00;1.30;;;;;;;9.48;100.00;99789.50;7392244;19;19949;-81
2023/12/21 04:08:36;;;;;;;4.88;2.05;;;;;;;9.49;100.00;99780.38;7390981;19;20377;-81
2023/12/21 04:11:04;;;;;;;6.35;1.42;;;;;;;9.41;100.00;99793.13;7392181;19;19951;-81
2023/12/21 04:13:34;;;;;;;3.47;1.40;;;;;;;9.40;100.00;99791.50;7393552;19;19915;-81
2023/12/21 04:16:02;;;;;;;9.15;1.40;;;;;;;9.38;100.00;99756.75;7388055;19;20596;-81
2023/12/21 04:18:32;;;;;;;8.95;1.55;;;;;;;9.38;100.00;99743.28;7393286;19;19926;-80
2023/12/21 04:21:01;;;;;;;6.80;1.40;;;;;;;9.34;100.00;99747.41;7390557;19;20292;-81
2023/12/21 04:23:32;;;;;;;5.15;1.45;;;;;;;9.34;100.00;99731.28;7392776;19;20288;-81
2023/12/21 04:26:00;;;;;;;8.48;1.50;;;;;;;9.35;100.00;99732.13;7391115;19;19926;-80
2023/12/21 04:28:29;;;;;;;5.15;1.30;;;;;;;9.31;100.00;99720.94;7390103;19;19927;-80
2023/12/21 04:30:58;;;;;;;3.90;1.80;;;;;;;9.37;100.00;99711.22;7390414;19;20371;-80
2023/12/21 04:33:26;;;;;;;4.95;1.77;;;;;;;9.27;100.00;99746.53;7392039;19;19946;-80
2023/12/21 04:35:55;;;;;;;7.07;1.70;;;;;;;9.28;100.00;99707.03;7389749;19;19926;-80
2023/12/21 04:38:24;;;;;;;7.13;1.67;;;;;;;9.29;100.00;99704.16;7389318;19;20396;-80
2023/12/21 04:40:55;;;;;;;7.72;1.70;;;;;;;9.33;100.00;99697.38;7397685;19;19914;-81
2023/12/21 04:43:23;;;;;;;4.25;1.52;;;;;;;9.33;100.00;99681.22;7389115;19;19954;-80
2023/12/21 04:45:52;;;;;;;6.70;1.55;;;;;;;9.29;100.00;99673.75;7390849;19;19926;-80
2023/12/21 04:48:20;;;;;;;4.00;1.27;;;;;;;9.29;100.00;99669.22;7398483;19;19951;-81
2023/12/21 04:50:49;;;;;;;4.40;2.20;;;;;;;9.30;100.00;99667.38;7398296;19;20312;-80
2023/12/21 04:53:17;;;;;;;7.80;1.25;;;;;;;9.32;100.00;99652.69;7390965;19;19927;-80
2023/12/21 04:55:46;;;;;;;6.78;1.10;;;;;;;9.49;100.00;99647.84;7390190;19;19919;-80
2023/12/21 04:58:18;;;;;;;3.35;1.00;;;;;;;9.38;100.00;99629.56;7391094;19;19949;-80
2023/12/21 05:00:50;;;;;;;3.85;1.35;;;;;;;9.39;100.00;99632.06;7390782;19;20327;-80
2023/12/21 05:03:20;;;;;;;7.00;1.20;;;;;;;9.39;100.00;99640.13;7387977;19;19926;-80
2023/12/21 05:05:49;;;;;;;4.15;1.27;;;;;;;9.37;100.00;99644.03;7389108;19;20006;-80
2023/12/21 05:08:17;;;;;;;3.78;1.60;;;;;;;9.36;100.00;99658.53;7388787;19;20289;-80
2023/12/21 05:10:46;;;;;;;3.47;1.02;;;;;;;9.37;100.00;99641.34;7390248;19;19926;-80
2023/12/21 05:13:17;;;;;;;6.03;0.93;;;;;;;9.37;100.00;99639.50;7390681;19;20269;-80
2023/12/21 05:16:07;;;;;;;5.43;1.10;;;;;;;9.36;100.00;99626.28;7393881;19;19918;-80
2023/12/21 05:18:37;;;;;;;3.70;1.05;;;;;;;9.40;100.00;99624.84;7396081;19;19950;-80
2023/12/21 05:21:09;;;;;;;4.28;0.90;;;;;;;9.44;100.00;99628.78;7395234;19;19989;-80
2023/12/21 05:23:38;;;;;;;2.97;0.98;;;;;;;9.45;100.00;99611.59;7395920;19;19929;-77
2023/12/21 05:26:12;;;;;;;4.72;1.55;;;;;;;9.42;100.00;99587.81;7395046;19;19922;-78
2023/12/21 05:28:44;;;;;;;3.60;1.00;;;;;;;9.37;100.00;99596.50;7395722;19;19946;-80
2023/12/21 05:31:14;;;;;;;3.85;1.10;;;;;;;9.46;100.00;99597.16;7395097;19;20271;-80
2023/12/21 05:33:45;;;;;;;2.67;0.75;;;;;;;9.43;100.00;99578.75;7395006;19;19929;-80
2023/12/21 05:36:22;;;;;;;4.15;1.30;;;;;;;9.42;100.00;99571.69;7395855;19;19947;-80
2023/12/21 05:38:51;;;;;;;3.95;1.30;;;;;;;9.43;100.00;99543.78;7394875;19;19919;-80
2023/12/21 05:41:20;;;;;;;5.80;1.20;;;;;;;9.41;100.00;99557.44;7394776;19;19922;-80
2023/12/21 05:43:51;;;;;;;6.72;1.48;;;;;;;9.43;100.00;99539.25;7392354;19;19966;-80
2023/12/21 05:46:19;;;;;;;5.75;1.58;;;;;;;9.45;100.00;99510.28;7394534;19;19922;-77
2023/12/21 05:48:48;;;;;;;5.18;1.50;;;;;;;9.45;100.00;99522.91;7396810;19;20265;-77
2023/12/21 05:51:17;;;;;;;4.97;2.17;;;;;;;9.47;100.00;99502.03;7391176;19;19990;-77
2023/12/21 05:53:45;;;;;;;9.52;1.42;;;;;;;9.40;100.00;99503.91;7393033;19;19919;-78
2023/12/21 05:56:14;;;;;;;6.45;1.48;;;;;;;9.39;100.00;99480.72;7395853;19;19946;-77
2023/12/21 05:58:43;;;;;;;1.92;1.10;;;;;;;9.42;100.00;99532.22;7396226;19;19926;-78
2023/12/21 06:01:14;;;;;;;6.97;1.40;;;;;;;9.46;100.00;99481.56;7393600;19;19923;-80
2023/12/21 06:03:42;;;;;;;6.15;1.35;;;;;;;9.42;100.00;99483.00;7394693;19;19922;-78
2023/12/21 06:06:13;;;;;;;7.15;1.25;;;;;;;9.41;100.00;99451.78;7392764;19;19918;-78
2023/12/21 06:08:41;;;;;;;4.80;1.10;;;;;;;9.41;100.00;99451.78;7393638;19;19922;-80
2023/12/21 06:11:10;;;;;;;9.75;1.58;;;;;;;9.42;100.00;99442.69;7393127;19;19993;-78
2023/12/21 06:13:38;;;;;;;8.77;1.48;;;;;;;9.42;100.00;99421.19;7394260;19;20380;-78
2023/12/21 06:16:11;;;;;;;7.20;1.60;;;;;;;9.45;100.00;99432.34;7396382;19;19922;-78
2023/12/21 06:18:43;;;;;;;6.88;1.48;;;;;;;9.43;100.00;99414.78;7395010;19;20581;-79
2023/12/21 06:21:11;;;;;;;5.05;1.27;;;;;;;9.45;100.00;99389.34;7394814;19;20264;-78
2023/12/21 06:23:40;;;;;;;5.78;1.10;;;;;;;9.45;100.00;99373.22;7395192;19;20282;-78
2023/12/21 06:26:08;;;;;;;8.23;1.40;;;;;;;9.48;100.00;99366.63;7391381;19;19919;-78
2023/12/21 06:28:37;;;;;;;6.22;1.50;;;;;;;9.46;100.00;99371.34;7394171;19;19923;-78
2023/12/21 06:31:06;;;;;;;8.00;1.15;;;;;;;9.51;100.00;99376.94;7394164;19;19951;-78
2023/12/21 06:33:35;;;;;;;5.00;1.13;;;;;;;9.50;100.00;99359.16;7380965;19;19934;-80
2023/12/21 06:36:07;;;;;;;5.38;1.25;;;;;;;9.56;100.00;99355.66;7394510;19;19923;-78
2023/12/21 06:38:35;;;;;;;4.07;1.20;;;;;;;9.55;100.00;99349.44;7393592;19;20309;-78
2023/12/21 06:41:04;;;;;;;5.75;1.10;;;;;;;9.56;100.00;99352.97;7394574;19;19926;-78
2023/12/21 06:43:32;;;;;;;5.65;1.08;;;;;;;9.57;100.00;99341.19;7393112;19;19922;-78
2023/12/21 06:46:01;;;;;;;4.68;1.17;;;;;;;9.55;100.00;99314.50;7394568;19;20516;-78
2023/12/21 06:48:30;;;;;;;7.10;1.20;;;;;;;9.53;100.00;99335.38;7395495;19;19923;-78
2023/12/21 06:50:58;;;;;;;1.95;0.95;;;;;;;9.54;100.00;99306.63;7393753;19;20360;-78
2023/12/21 06:53:29;;;;;;;7.13;1.73;;;;;;;9.59;100.00;99325.66;7394689;19;19946;-80
2023/12/21 06:55:58;;;;;;;5.82;1.42;;;;;;;9.57;100.00;99327.72;7397453;19;19923;-77
2023/12/21 06:58:27;;;;;;;8.65;1.33;;;;;;;9.65;100.00;99287.19;7395155;19;19943;-80
2023/12/21 07:00:56;;;;;;;5.97;1.55;;;;;;;9.72;100.00;99285.31;7393562;19;19918;-77
2023/12/21 07:03:25;;;;;;;5.85;1.20;;;;;;;9.67;100.00;99311.97;7396084;19;19950;-79
2023/12/21 07:05:53;;;;;;;7.32;1.23;;;;;;;9.72;100.00;99304.13;7400911;19;19922;-79
2023/12/21 07:08:22;;;;;;;6.70;1.33;;;;;;;9.67;100.00;99306.59;7403637;19;19970;-78
2023/12/21 07:10:53;;;;;;;7.25;1.10;;;;;;;9.71;100.00;99317.78;7397190;19;20273;-79
2023/12/21 07:13:22;;;;;;;3.22;1.10;;;;;;;9.75;100.00;99332.47;7395913;19;19918;-78
2023/12/21 07:16:11;;;;;;;4.68;1.00;;;;;;;9.71;100.00;99297.09;7392506;19;19918;-86
2023/12/21 07:18:41;;;;;;;5.28;1.00;;;;;;;9.62;100.00;99281.41;7398290;19;20373;-87
2023/12/21 07:21:09;;;;;;;5.32;1.08;;;;;;;9.65;100.00;99281.81;7396500;19;19946;-86
2023/12/21 07:23:38;;;;;;;4.22;0.90;;;;;;;9.63;100.00;99293.78;7397189;19;20276;-78
2023/12/21 07:26:13;;;;;;;3.78;0.77;;;;;;;9.59;100.00;99271.88;7391546;19;20272;-78
2023/12/21 07:28:42;;;;;;;2.08;0.75;;;;;;;9.58;100.00;99321.31;7392302;19;19928;-77
2023/12/21 07:31:31;;;;;;;;;;;;;;;9.53;100.00;99281.59;7393412;19;19918;-78
2023/12/21 07:33:59;;;;;;;1.92;0.60;;;;;;;9.55;100.00;99276.03;7390643;19;19922;-78
2023/12/21 07:36:28;;;;;;;3.40;0.88;;;;;;;9.58;100.00;99278.28;7393849;19;19946;-78
2023/12/21 07:38:56;;;;;;;3.63;0.70;;;;;;;9.56;100.00;99258.88;7395283;19;19949;-78
2023/12/21 07:41:27;;;;;;;2.38;0.93;;;;;;;9.56;100.00;99264.25;7390747;19;19974;-78
2023/12/21 07:43:57;;;;;;;3.83;0.75;;;;;;;9.57;100.00;99252.47;7395708;19;19956;-78
2023/12/21 07:46:26;;;;;;;3.47;0.50;;;;;;;9.52;100.00;99281.81;7393891;19;19922;-78
2023/12/21 07:48:55;;;;;;;3.78;0.70;;;;;;;9.53;100.00;99243.16;7392996;19;19986;-77
2023/12/21 07:51:23;;;;;;;3.30;0.47;;;;;;;9.56;100.00;99203.25;7391575;19;19957;-77
2023/12/21 07:53:52;;;;;;;1.27;0.43;;;;;;;9.56;100.00;99245.44;7394053;19;19923;-78
2023/12/21 07:56:21;;;;;;;2.25;0.50;;;;;;;9.53;100.00;99238.59;7392644;19;19950;-78
2023/12/21 07:59:13;;;;;;;1.45;0.40;;;;;;;9.51;100.00;99281.00;7393229;19;19927;-77
2023/12/21 08:01:42;;;;;;;2.63;0.40;;;;;;;9.50;100.00;99241.72;7393437;19;19922;-77
2023/12/21 08:04:11;;;;;;;6.38;0.63;;;;;;;9.51;100.00;99210.28;7394276;19;19926;-77
2023/12/21 08:06:40;;;;;;;2.22;0.50;;;;;;;9.52;100.00;99201.19;7392827;19;19930;-77
2023/12/21 08:09:08;;;;;;;1.75;0.40;;;;;;;9.53;100.00;99209.03;7393067;19;19930;-77
2023/12/21 08:11:37;;;;;;;4.13;0.55;;;;;;;9.48;100.00;99202.66;7390948;19;19983;-77
2023/12/21 08:14:05;;;;;;;5.05;0.30;;;;;;;9.43;100.00;99181.78;7393348;19;19975;-77
2023/12/21 08:16:37;;;;;;;1.83;0.30;;;;;;;9.49;100.00;99194.34;7392702;19;19926;-78
2023/12/21 08:19:07;;;;;;;2.15;0.50;;;;;;;9.47;100.00;99204.50;7388163;19;19920;-77
2023/12/21 08:21:36;;;;;;;2.38;0.30;;;;;;;9.47;100.00;99166.03;7394063;19;19923;-78
2023/12/21 08:24:05;;;;;;;1.17;0.40;;;;;;;9.52;100.00;99174.31;7393046;19;19947;-77
2023/12/21 08:26:34;;;;;;;4.40;0.90;;;;;;;-140.11;100.00;63894.81;7392968;19;19927;-77
2023/12/21 08:29:03;;;;;;;3.92;1.38;;;;;;;-140.11;100.00;63894.81;7393323;19;19926;-77
2023/12/21 08:31:31;;;;;;;1.75;0.40;;;;;;;-140.11;100.00;63894.81;7392814;19;19977;-77
2023/12/21 08:34:02;;;;;;;1.48;0.40;;;;;;;-140.11;100.00;63894.81;7390320;19;19934;-77
2023/12/21 08:36:43;;;;;;;2.08;0.47;;;;;;;-140.11;100.00;63894.81;7392655;19;19947;-80
2023/12/21 08:39:15;;;;;;;2.17;0.63;;;;;;;-140.11;100.00;63894.81;7393648;19;20490;-77
2023/12/21 08:42:06;;;;;;;1.95;0.65;;;;;;;-140.11;100.00;63894.81;7391514;19;20306;-77
2023/12/21 08:44:34;;;;;;;1.50;0.30;;;;;;;-140.11;100.00;63894.81;7390038;19;20019;-77
2023/12/21 08:47:04;;;;;;;1.58;0.30;;;;;;;-140.11;100.00;63894.81;7391233;19;19922;-77
2023/12/21 08:49:35;;;;;;;1.75;0.52;;;;;;;-140.11;100.00;63894.81;7388594;19;20487;-77
2023/12/21 08:52:04;;;;;;;3.30;0.68;;;;;;;-140.11;100.00;63894.81;7393826;19;19922;-77
2023/12/21 08:54:34;;;;;;;3.13;0.70;;;;;;;-140.11;100.00;63894.81;7393907;19;22099;-77
2023/12/21 08:57:07;;;;;;;3.17;0.93;;;;;;;-140.11;100.00;63894.81;7395530;19;19922;-77
2023/12/21 08:59:35;;;;;;;1.17;0.70;;;;;;;9.67;100.00;99093.38;7391658;19;20300;-77
2023/12/21 09:02:04;;;;;;;5.18;0.70;;;;;;;9.62;100.00;99123.59;7391318;19;19919;-77
2023/12/21 09:04:35;;;;;;;5.03;0.75;;;;;;;9.66;100.00;99089.06;7391900;19;19923;-77
2023/12/21 09:07:04;;;;;;;3.58;0.90;;;;;;;9.68;100.00;99070.81;7391520;19;19956;-77
2023/12/21 09:09:32;;;;;;;5.85;0.88;;;;;;;9.70;100.00;99120.69;7392499;19;19986;-77
2023/12/21 09:12:21;;;;;;;6.28;1.02;;;;;;;9.72;100.00;99094.38;7393170;19;19939;-77
2023/12/21 09:14:50;;;;;;;5.88;1.20;;;;;;;9.74;100.00;99068.13;7395093;19;19918;-77
2023/12/21 09:17:19;;;;;;;5.15;1.02;;;;;;;9.76;100.00;99059.81;7394358;19;19930;-77
2023/12/21 09:19:51;;;;;;;6.70;1.13;;;;;;;9.76;100.00;99065.19;7394793;19;19946;-77
2023/12/21 09:22:21;;;;;;;7.80;1.70;;;;;;;9.78;100.00;99082.78;7391334;19;20294;-77
2023/12/21 09:24:53;;;;;;;7.72;1.30;;;;;;;9.83;100.00;99080.28;7392988;19;19937;-77
2023/12/21 09:27:23;;;;;;;8.65;1.20;;;;;;;9.84;100.00;99030.78;7391784;19;19915;-77
2023/12/21 09:29:52;;;;;;;2.00;0.65;;;;;;;9.82;100.00;99051.72;7391281;19;19922;-77
2023/12/21 09:32:19;;;;;;;6.65;0.90;;;;;;;9.89;100.00;99038.22;7392587;19;19929;-77
2023/12/21 09:34:53;;;;;;;11.13;1.67;;;;;;;9.90;100.00;99038.00;7388939;19;20265;-77
2023/12/21 09:37:21;;;;;;;6.03;0.90;;;;;;;9.89;100.00;99044.44;7388407;19;19919;-77
2023/12/21 09:39:50;;;;;;;4.82;0.73;;;;;;;9.94;100.00;99012.31;7389318;19;20578;-77
2023/12/21 09:42:20;;;;;;;6.28;1.00;;;;;;;9.91;100.00;99022.69;7389339;19;19929;-77
2023/12/21 09:44:50;;;;;;;2.58;0.50;;;;;;;9.96;100.00;99015.63;7390953;19;19958;-77
2023/12/21 09:47:22;;;;;;;8.25;0.95;;;;;;;10.01;100.00;99037.31;7391388;19;20277;-77
2023/12/21 09:49:54;;;;;;;8.18;1.00;;;;;;;10.04;100.00;99014.53;7389721;19;20338;-77
2023/12/21 09:52:24;;;;;;;;;;;;;;;10.07;100.00;98978.28;7392766;19;20366;-78
2023/12/21 09:54:54;;;;;;;4.32;1.00;;;;;;;10.11;100.00;99009.09;7387711;19;20464;-77
2023/12/21 09:57:24;;;;;;;9.05;1.20;;;;;;;10.15;100.00;98986.94;7385714;19;23091;-77
2023/12/21 09:59:56;;;;;;;5.72;1.00;;;;;;;10.14;100.00;98987.94;7390671;19;19926;-77
2023/12/21 10:02:30;;;;;;;11.80;1.25;;;;;;;10.11;100.00;98985.69;7391033;19;19923;-77
2023/12/21 10:05:01;;;;;;;4.63;1.30;;;;;;;10.15;100.00;98973.47;7397172;19;20310;-77
2023/12/21 10:07:34;;;;;;;8.73;1.50;;;;;;;10.18;100.00;98948.81;7395971;19;19919;-77
2023/12/21 10:10:03;;;;;;;5.93;1.30;;;;;;;10.19;100.00;98966.63;7391715;19;19958;-77
2023/12/21 10:12:31;;;;;;;7.85;1.77;;;;;;;10.19;100.00;98968.47;7395730;19;19923;-77
2023/12/21 10:15:03;;;;;;;8.20;2.25;;;;;;;10.18;100.00;98942.63;7396029;19;19923;-77
2023/12/21 10:17:32;;;;;;;;;;;;;;;10.19;100.00;98942.41;7397154;19;19918;-77
2023/12/21 10:20:06;;;;;;;8.30;1.10;;;;;;;10.24;100.00;98990.19;7394039;19;19982;-78
2023/12/21 10:22:35;;;;;;;7.78;1.40;;;;;;;10.33;100.00;98978.09;7394460;19;19955;-77
2023/12/21 10:25:05;;;;;;;5.18;0.80;;;;;;;10.34;100.00;99042.47;7397293;19;20037;-77
2023/12/21 10:27:36;;;;;;;5.65;1.20;;;;;;;10.45;100.00;98963.66;7400140;19;20206;-77
2023/12/21 10:30:06;;;;;;;7.45;1.63;;;;;;;10.50;100.00;98938.78;7393494;19;19915;-77
2023/12/21 10:32:35;;;;;;;4.75;1.38;;;;;;;10.46;100.00;98951.03;7396670;19;19923;-77
2023/12/21 10:35:11;;;;;;;8.15;1.30;;;;;;;10.50;100.00;98956.78;7395870;19;19926;-77
2023/12/21 10:37:40;;;;;;;8.98;1.30;;;;;;;10.51;100.00;98939.59;7391089;19;20563;-77
2023/12/21 10:40:14;;;;;;;7.38;1.35;;;;;;;10.51;100.00;98926.97;7396454;19;19919;-76
2023/12/21 10:42:47;;;;;;;10.07;1.20;;;;;;;10.57;100.00;98942.22;7395917;19;19922;-76
2023/12/21 10:45:18;;;;;;;10.75;1.92;;;;;;;10.60;100.00;98939.09;7395253;19;20232;-77
2023/12/21 10:48:11;;;;;;;8.63;1.52;;;;;;;10.78;100.00;98931.00;7393498;19;19956;-77
2023/12/21 10:50:46;;;;;;;6.63;1.80;;;;;;;10.81;100.00;98941.31;7397508;19;19926;-77
2023/12/21 10:53:16;;;;;;;16.77;2.08;;;;;;;10.91;100.00;98921.94;7391995;19;19939;-77
2023/12/21 10:55:46;;;;;;;10.05;2.15;;;;;;;10.80;100.00;98926.22;7395230;19;20373;-76
2023/12/21 10:58:15;;;;;;;12.55;1.60;;;;;;;10.66;100.00;98934.66;7391985;19;19922;-76
2023/12/21 11:00:45;;;;;;;11.85;1.58;;;;;;;10.55;100.00;98912.00;7392696;19;19954;-76
2023/12/21 11:03:34;;;;;;;5.45;1.40;;;;;;;10.51;100.00;98902.75;7392036;19;19939;-76
2023/12/21 11:06:07;;;;;;;9.15;1.30;;;;;;;10.54;100.00;98913.06;7392661;19;20483;-76
2023/12/21 11:08:38;;;;;;;6.00;1.48;;;;;;;10.62;100.00;98907.34;7392069;19;19923;-76
2023/12/21 11:11:07;;;;;;;9.60;1.98;;;;;;;10.66;100.00;99018.97;7392358;19;20257;-76
2023/12/21 11:13:36;;;;;;;12.10;2.05;;;;;;;10.70;100.00;98888.19;7390558;19;20310;-77
2023/12/21 11:16:05;;;;;;;11.15;1.95;;;;;;;10.73;100.00;98936.25;7393827;19;19926;-77
2023/12/21 11:18:34;;;;;;;10.75;1.85;;;;;;;10.76;100.00;98938.47;7392791;19;19926;-77
2023/12/21 11:21:08;;;;;;;11.55;2.22;;;;;;;10.88;100.00;98903.53;7388203;19;20279;-77
2023/12/21 11:23:44;;;;;;;9.13;1.67;;;;;;;10.86;100.00;98948.72;7391463;19;19955;-77
2023/12/21 11:26:13;;;;;;;5.80;1.92;;;;;;;10.84;100.00;98915.78;7388050;19;19914;-77
2023/12/21 11:28:43;;;;;;;11.70;2.00;;;;;;;10.85;100.00;98929.06;7393405;19;19926;-77
2023/12/21 11:31:16;;;;;;;10.10;1.70;;;;;;;10.85;100.00;98939.81;7394450;19;19919;-77
2023/12/21 11:33:45;;;;;;;7.68;1.25;;;;;;;10.70;100.00;98920.53;7396061;19;19948;-76
2023/12/21 11:36:25;;;;;;;9.95;1.95;;;;;;;-140.11;100.00;63894.81;7395752;19;19929;-76
2023/12/21 11:38:55;;;;;;;11.75;1.83;;;;;;;-140.11;100.00;63894.81;7396870;19;19947;-76
2023/12/21 11:41:27;;;;;;;12.13;2.83;;;;;;;-140.11;100.00;63894.81;7389786;19;19922;-76